createdAt,value
2023-03-04T00:00:23.344Z,0.00
2023-03-04T00:01:23.412Z,0.00
2023-03-04T00:02:23.421Z,0.00
2023-03-04T00:03:23.389Z,0.00
2023-03-04T00:04:23.385Z,0.00
2023-03-04T00:05:23.375Z,0.00
2023-03-04T00:06:23.304Z,0.00
2023-03-04T00:07:23.282Z,0.00
2023-03-04T00:08:23.324Z,0.00
2023-03-04T00:09:23.332Z,0.00
2023-03-04T00:10:23.303Z,0.00
2023-03-04T00:11:23.244Z,0.00
2023-03-04T00:12:23.217Z,0.00
2023-03-04T00:13:23.216Z,0.00
2023-03-04T00:14:23.224Z,0.00
2023-03-04T00:15:23.282Z,0.00
2023-03-04T00:16:23.301Z,0.00
2023-03-04T00:17:23.147Z,0.00
2023-03-04T00:18:23.147Z,0.00
2023-03-04T00:19:23.096Z,0.00
2023-03-04T00:20:23.159Z,0.00
2023-03-04T00:21:23.400Z,0.00
2023-03-04T00:22:23.124Z,0.00
2023-03-04T00:23:23.177Z,0.00
2023-03-04T00:24:23.083Z,0.00
2023-03-04T00:25:23.142Z,0.00
2023-03-04T00:26:23.112Z,0.00
2023-03-04T00:27:23.205Z,0.00
2023-03-04T00:28:23.110Z,0.00
2023-03-04T00:29:23.016Z,0.00
2023-03-04T00:30:23.022Z,0.00
2023-03-04T00:31:23.048Z,0.00
2023-03-04T00:32:22.997Z,0.00
2023-03-04T00:33:23.047Z,0.00
2023-03-04T00:34:23.053Z,0.00
2023-03-04T00:35:22.976Z,0.00
2023-03-04T00:36:22.957Z,0.00
2023-03-04T00:37:23.059Z,0.00
2023-03-04T00:38:22.913Z,0.00
2023-03-04T00:39:22.953Z,0.00
2023-03-04T00:40:22.993Z,0.00
2023-03-04T00:41:22.889Z,0.00
2023-03-04T00:42:22.893Z,0.00
2023-03-04T00:43:22.909Z,0.00
2023-03-04T00:44:22.950Z,0.00
2023-03-04T00:45:22.868Z,0.00
2023-03-04T00:46:22.956Z,0.00
2023-03-04T00:47:22.932Z,0.00
2023-03-04T00:48:22.806Z,0.00
2023-03-04T00:49:22.844Z,0.00
2023-03-04T00:50:23.054Z,0.00
2023-03-04T00:51:22.826Z,0.00
2023-03-04T00:52:22.855Z,0.00
2023-03-04T00:53:22.843Z,0.00
2023-03-04T00:54:22.769Z,0.00
2023-03-04T00:55:22.763Z,0.00
2023-03-04T00:56:22.750Z,0.00
2023-03-04T00:57:22.754Z,0.00
2023-03-04T00:58:22.795Z,0.00
2023-03-04T00:59:22.753Z,0.00
2023-03-04T01:00:22.721Z,0.00
2023-03-04T01:01:22.754Z,0.00
2023-03-04T01:02:22.756Z,0.00
2023-03-04T01:03:22.705Z,0.00
2023-03-04T01:04:22.721Z,0.00
2023-03-04T01:05:22.691Z,0.00
2023-03-04T01:06:22.594Z,0.00
2023-03-04T01:07:22.604Z,0.00
2023-03-04T01:08:22.606Z,0.00
2023-03-04T01:09:22.613Z,0.00
2023-03-04T01:10:22.759Z,0.00
2023-03-04T01:11:22.565Z,0.00
2023-03-04T01:12:22.569Z,0.00
2023-03-04T01:13:22.578Z,0.00
2023-03-04T01:14:22.581Z,0.00
2023-03-04T01:15:22.619Z,0.00
2023-03-04T01:16:22.658Z,0.00
2023-03-04T01:17:22.632Z,0.00
2023-03-04T01:18:22.539Z,0.00
2023-03-04T01:19:22.534Z,0.00
2023-03-04T01:20:22.551Z,0.00
2023-03-04T01:21:23.272Z,0.00
2023-03-04T01:22:23.281Z,0.00
2023-03-04T01:23:22.455Z,0.00
2023-03-04T01:24:22.568Z,0.00
2023-03-04T01:25:22.471Z,0.00
2023-03-04T01:26:23.398Z,0.00
2023-03-04T01:27:22.479Z,0.00
2023-03-04T01:28:22.499Z,0.00
2023-03-04T01:29:22.499Z,0.00
2023-03-04T01:30:22.514Z,0.00
2023-03-04T01:31:22.408Z,0.00
2023-03-04T01:32:24.120Z,0.00
2023-03-04T01:33:22.334Z,0.00
2023-03-04T01:34:22.438Z,0.00
2023-03-04T01:35:22.380Z,0.00
2023-03-04T01:36:22.345Z,0.00
2023-03-04T01:37:22.337Z,0.00
2023-03-04T01:38:22.365Z,0.00
2023-03-04T01:39:22.361Z,0.00
2023-03-04T01:40:22.368Z,0.00
2023-03-04T01:41:22.263Z,0.00
2023-03-04T01:42:22.271Z,0.00
2023-03-04T01:43:22.381Z,0.00
2023-03-04T01:44:22.225Z,0.00
2023-03-04T01:45:22.303Z,0.00
2023-03-04T01:46:22.451Z,0.00
2023-03-04T01:47:22.206Z,0.00
2023-03-04T01:48:22.229Z,0.00
2023-03-04T01:49:22.164Z,0.00
2023-03-04T01:50:22.236Z,0.00
2023-03-04T01:51:22.364Z,0.00
2023-03-04T01:52:22.249Z,0.00
2023-03-04T01:53:22.141Z,0.00
2023-03-04T01:54:22.090Z,0.00
2023-03-04T01:55:22.099Z,0.00
2023-03-04T01:56:22.111Z,0.00
2023-03-04T01:57:22.092Z,0.00
2023-03-04T01:58:22.084Z,0.00
2023-03-04T01:59:22.108Z,0.00
2023-03-04T02:00:22.032Z,0.00
2023-03-04T02:01:22.108Z,0.00
2023-03-04T02:02:22.101Z,0.00
2023-03-04T02:03:22.005Z,0.00
2023-03-04T02:04:22.054Z,0.00
2023-03-04T02:05:22.016Z,0.00
2023-03-04T02:06:22.043Z,0.00
2023-03-04T02:07:22.037Z,0.00
2023-03-04T02:08:22.040Z,0.00
2023-03-04T02:09:21.951Z,0.00
2023-03-04T02:10:21.981Z,0.00
2023-03-04T02:11:21.955Z,0.00
2023-03-04T02:12:21.968Z,0.00
2023-03-04T02:13:21.974Z,0.00
2023-03-04T02:14:21.903Z,0.00
2023-03-04T02:15:21.988Z,0.00
2023-03-04T02:16:22.011Z,0.00
2023-03-04T02:17:21.836Z,0.00
2023-03-04T02:18:21.845Z,0.00
2023-03-04T02:19:21.898Z,0.00
2023-03-04T02:20:21.853Z,0.00
2023-03-04T02:21:21.814Z,0.00
2023-03-04T02:22:21.807Z,0.00
2023-03-04T02:23:21.926Z,0.00
2023-03-04T02:24:21.866Z,0.00
2023-03-04T02:25:21.852Z,0.00
2023-03-04T02:26:21.846Z,0.00
2023-03-04T02:27:22.234Z,0.00
2023-03-04T02:28:21.707Z,0.00
2023-03-04T02:29:21.788Z,0.00
2023-03-04T02:30:21.793Z,0.00
2023-03-04T02:31:21.817Z,0.00
2023-03-04T02:32:21.844Z,0.00
2023-03-04T02:33:21.807Z,0.00
2023-03-04T02:34:21.704Z,0.00
2023-03-04T02:35:21.793Z,0.00
2023-03-04T02:36:21.730Z,0.00
2023-03-04T02:37:21.752Z,0.00
2023-03-04T02:38:22.451Z,0.00
2023-03-04T02:39:21.654Z,0.00
2023-03-04T02:40:21.654Z,0.00
2023-03-04T02:41:21.664Z,0.00
2023-03-04T02:42:21.669Z,0.00
2023-03-04T02:43:21.676Z,0.00
2023-03-04T02:44:21.679Z,0.00
2023-03-04T02:45:21.585Z,0.00
2023-03-04T02:46:21.656Z,0.00
2023-03-04T02:47:21.603Z,0.00
2023-03-04T02:48:21.616Z,0.00
2023-03-04T02:49:21.621Z,0.00
2023-03-04T02:50:21.621Z,0.00
2023-03-04T02:51:21.554Z,0.00
2023-03-04T02:52:21.540Z,0.00
2023-03-04T02:53:21.498Z,0.00
2023-03-04T02:54:21.542Z,0.00
2023-03-04T02:55:21.560Z,0.00
2023-03-04T02:56:21.438Z,0.00
2023-03-04T02:57:21.493Z,0.00
2023-03-04T02:58:21.428Z,0.00
2023-03-04T02:59:21.461Z,0.00
2023-03-04T03:00:21.484Z,0.00
2023-03-04T03:01:21.491Z,0.00
2023-03-04T03:02:21.380Z,0.00
2023-03-04T03:03:21.357Z,0.00
2023-03-04T03:04:21.414Z,0.00
2023-03-04T03:05:21.425Z,0.00
2023-03-04T03:06:21.377Z,0.00
2023-03-04T03:07:21.334Z,0.00
2023-03-04T03:08:21.287Z,0.00
2023-03-04T03:09:21.433Z,0.00
2023-03-04T03:10:21.448Z,0.00
2023-03-04T03:11:21.342Z,0.00
2023-03-04T03:12:21.359Z,0.00
2023-03-04T03:13:21.358Z,0.00
2023-03-04T03:14:21.266Z,0.00
2023-03-04T03:15:21.231Z,0.00
2023-03-04T03:16:21.419Z,0.00
2023-03-04T03:17:21.279Z,0.00
2023-03-04T03:18:21.299Z,0.00
2023-03-04T03:19:21.309Z,0.00
2023-03-04T03:20:21.312Z,0.00
2023-03-04T03:21:21.171Z,0.00
2023-03-04T03:22:21.228Z,0.00
2023-03-04T03:23:21.247Z,0.00
2023-03-04T03:24:21.254Z,0.00
2023-03-04T03:25:21.242Z,0.00
2023-03-04T03:26:21.144Z,0.00
2023-03-04T03:27:21.154Z,0.00
2023-03-04T03:28:21.155Z,0.00
2023-03-04T03:29:21.176Z,0.00
2023-03-04T03:30:21.170Z,0.00
2023-03-04T03:31:21.211Z,0.00
2023-03-04T03:32:21.117Z,0.00
2023-03-04T03:33:21.084Z,0.00
2023-03-04T03:34:21.103Z,0.00
2023-03-04T03:35:21.128Z,0.00
2023-03-04T03:36:21.178Z,0.00
2023-03-04T03:37:21.526Z,0.00
2023-03-04T03:38:21.014Z,0.00
2023-03-04T03:39:21.053Z,0.00
2023-03-04T03:40:21.043Z,0.00
2023-03-04T03:41:21.138Z,0.00
2023-03-04T03:42:21.362Z,0.00
2023-03-04T03:43:20.959Z,1.00
2023-03-04T03:44:20.954Z,1.00
2023-03-04T03:45:20.960Z,1.00
2023-03-04T03:46:20.826Z,1.00
2023-03-04T03:47:20.839Z,1.00
2023-03-04T03:48:21.344Z,1.00
2023-03-04T03:49:20.888Z,1.00
2023-03-04T03:50:20.896Z,1.00
2023-03-04T03:51:21.814Z,1.00
2023-03-04T03:52:20.870Z,1.00
2023-03-04T03:53:20.770Z,1.00
2023-03-04T03:54:20.878Z,1.00
2023-03-04T03:55:20.829Z,1.00
2023-03-04T03:56:20.816Z,1.00
2023-03-04T03:57:21.323Z,1.00
2023-03-04T03:58:20.855Z,1.00
2023-03-04T03:59:20.764Z,1.00
2023-03-04T04:00:20.773Z,1.00
2023-03-04T04:01:20.776Z,1.00
2023-03-04T04:02:20.887Z,1.00
2023-03-04T04:03:20.741Z,1.00
2023-03-04T04:04:20.900Z,1.00
2023-03-04T04:05:20.752Z,1.00
2023-03-04T04:06:20.710Z,1.00
2023-03-04T04:07:20.661Z,1.00
2023-03-04T04:08:20.669Z,1.00
2023-03-04T04:09:21.395Z,1.00
2023-03-04T04:10:20.682Z,1.00
2023-03-04T04:11:20.585Z,1.00
2023-03-04T04:12:21.210Z,1.00
2023-03-04T04:13:20.624Z,1.00
2023-03-04T04:14:20.621Z,1.00
2023-03-04T04:15:20.618Z,1.00
2023-03-04T04:16:20.666Z,1.00
2023-03-04T04:17:20.631Z,1.00
2023-03-04T04:18:20.539Z,1.00
2023-03-04T04:19:20.538Z,1.00
2023-03-04T04:20:20.548Z,1.00
2023-03-04T04:21:20.768Z,1.00
2023-03-04T04:22:20.565Z,1.00
2023-03-04T04:23:20.569Z,1.00
2023-03-04T04:24:20.467Z,1.00
2023-03-04T04:25:20.484Z,1.00
2023-03-04T04:26:20.488Z,1.00
2023-03-04T04:27:20.582Z,1.00
2023-03-04T04:28:20.496Z,1.00
2023-03-04T04:29:20.493Z,1.00
2023-03-04T04:30:20.409Z,1.00
2023-03-04T04:31:20.417Z,1.00
2023-03-04T04:32:20.392Z,1.00
2023-03-04T04:33:20.362Z,1.00
2023-03-04T04:34:20.437Z,1.00
2023-03-04T04:35:20.446Z,1.00
2023-03-04T04:36:20.338Z,1.00
2023-03-04T04:37:20.278Z,1.00
2023-03-04T04:38:20.351Z,1.00
2023-03-04T04:39:20.360Z,1.00
2023-03-04T04:40:20.363Z,1.00
2023-03-04T04:41:20.279Z,1.00
2023-03-04T04:42:20.280Z,1.00
2023-03-04T04:43:20.280Z,1.00
2023-03-04T04:44:20.231Z,1.00
2023-03-04T04:45:20.297Z,1.00
2023-03-04T04:46:20.349Z,1.00
2023-03-04T04:47:20.208Z,1.00
2023-03-04T04:48:20.211Z,1.00
2023-03-04T04:49:20.218Z,1.00
2023-03-04T04:50:20.169Z,1.00
2023-03-04T04:51:20.231Z,1.00
2023-03-04T04:52:20.259Z,1.00
2023-03-04T04:53:20.248Z,1.00
2023-03-04T04:54:20.159Z,1.00
2023-03-04T04:55:20.162Z,1.00
2023-03-04T04:56:20.102Z,1.00
2023-03-04T04:57:20.143Z,1.00
2023-03-04T04:58:20.177Z,1.00
2023-03-04T04:59:20.021Z,1.00
2023-03-04T05:00:20.091Z,1.00
2023-03-04T05:01:20.142Z,1.00
2023-03-04T05:02:20.093Z,1.00
2023-03-04T05:03:22.100Z,1.00
2023-03-04T05:04:20.021Z,1.00
2023-03-04T05:05:19.961Z,1.00
2023-03-04T05:06:19.960Z,1.00
2023-03-04T05:07:19.971Z,1.00
2023-03-04T05:08:19.975Z,1.00
2023-03-04T05:09:20.186Z,1.00
2023-03-04T05:10:20.000Z,1.00
2023-03-04T05:11:20.001Z,1.00
2023-03-04T05:12:19.900Z,1.00
2023-03-04T05:13:19.907Z,1.00
2023-03-04T05:14:19.984Z,1.00
2023-03-04T05:15:19.879Z,1.00
2023-03-04T05:16:19.930Z,1.00
2023-03-04T05:17:19.895Z,1.00
2023-03-04T05:18:19.840Z,1.00
2023-03-04T05:19:19.856Z,1.00
2023-03-04T05:20:19.870Z,1.00
2023-03-04T05:21:19.958Z,1.00
2023-03-04T05:22:19.930Z,1.00
2023-03-04T05:23:19.878Z,1.00
2023-03-04T05:24:19.886Z,1.00
2023-03-04T05:25:20.495Z,1.00
2023-03-04T05:26:19.791Z,1.00
2023-03-04T05:27:19.803Z,1.00
2023-03-04T05:28:19.866Z,1.00
2023-03-04T05:29:19.772Z,1.00
2023-03-04T05:30:19.710Z,1.00
2023-03-04T05:31:19.760Z,1.00
2023-03-04T05:32:19.789Z,1.00
2023-03-04T05:33:19.738Z,1.00
2023-03-04T05:34:19.739Z,1.00
2023-03-04T05:35:19.763Z,1.00
2023-03-04T05:36:19.713Z,1.00
2023-03-04T05:37:19.665Z,1.00
2023-03-04T05:38:19.746Z,1.00
2023-03-04T05:39:19.749Z,1.00
2023-03-04T05:40:19.738Z,1.00
2023-03-04T05:41:19.652Z,1.00
2023-03-04T05:42:19.658Z,1.00
2023-03-04T05:43:19.665Z,1.00
2023-03-04T05:44:19.684Z,1.00
2023-03-04T05:45:19.673Z,1.00
2023-03-04T05:46:19.770Z,1.00
2023-03-04T05:47:19.590Z,1.00
2023-03-04T05:48:19.594Z,1.00
2023-03-04T05:49:19.605Z,1.00
2023-03-04T05:50:19.918Z,1.00
2023-03-04T05:51:19.628Z,1.00
2023-03-04T05:52:19.632Z,1.00
2023-03-04T05:53:19.536Z,1.00
2023-03-04T05:54:19.540Z,1.00
2023-03-04T05:55:19.544Z,1.00
2023-03-04T05:56:19.867Z,1.00
2023-03-04T05:57:19.477Z,1.00
2023-03-04T05:58:19.475Z,1.00
2023-03-04T05:59:19.973Z,1.00
2023-03-04T06:00:19.474Z,1.00
2023-03-04T06:01:19.481Z,1.00
2023-03-04T06:02:21.338Z,1.00
2023-03-04T06:03:20.416Z,1.00
2023-03-04T06:04:19.417Z,1.00
2023-03-04T06:05:19.521Z,1.00
2023-03-04T06:06:19.411Z,1.00
2023-03-04T06:07:19.394Z,1.00
2023-03-04T06:08:19.400Z,1.00
2023-03-04T06:09:19.410Z,1.00
2023-03-04T06:10:19.321Z,1.00
2023-03-04T06:11:19.453Z,1.00
2023-03-04T06:12:19.319Z,1.00
2023-03-04T06:13:19.332Z,1.00
2023-03-04T06:14:19.375Z,1.00
2023-03-04T06:15:19.351Z,1.00
2023-03-04T06:16:19.409Z,1.00
2023-03-04T06:17:19.461Z,1.00
2023-03-04T06:18:20.277Z,1.00
2023-03-04T06:19:19.586Z,1.00
2023-03-04T06:20:19.375Z,1.00
2023-03-04T06:21:19.598Z,1.00
2023-03-04T06:22:19.714Z,1.00
2023-03-04T06:23:19.399Z,1.00
2023-03-04T06:24:19.307Z,1.00
2023-03-04T06:25:19.320Z,1.00
2023-03-04T06:26:19.324Z,1.00
2023-03-04T06:27:19.436Z,1.00
2023-03-04T06:28:19.335Z,1.00
2023-03-04T06:29:19.133Z,1.00
2023-03-04T06:30:19.149Z,1.00
2023-03-04T06:31:19.291Z,1.00
2023-03-04T06:32:19.266Z,1.00
2023-03-04T06:33:19.160Z,1.00
2023-03-04T06:34:19.470Z,1.00
2023-03-04T06:35:19.562Z,1.00
2023-03-04T06:36:19.174Z,1.00
2023-03-04T06:37:19.092Z,1.00
2023-03-04T06:38:19.087Z,1.00
2023-03-04T06:39:19.091Z,1.00
2023-03-04T06:40:21.151Z,1.00
2023-03-04T06:41:19.114Z,1.00
2023-03-04T06:42:19.009Z,1.00
2023-03-04T06:43:19.023Z,1.00
2023-03-04T06:44:19.033Z,1.00
2023-03-04T06:45:19.140Z,1.00
2023-03-04T06:46:19.456Z,1.00
2023-03-04T06:47:19.062Z,1.00
2023-03-04T06:48:18.977Z,1.00
2023-03-04T06:49:19.057Z,1.00
2023-03-04T06:50:18.964Z,1.00
2023-03-04T06:51:18.981Z,1.00
2023-03-04T06:52:18.983Z,1.00
2023-03-04T06:53:18.887Z,1.00
2023-03-04T06:54:19.092Z,1.00
2023-03-04T06:55:18.896Z,1.00
2023-03-04T06:56:18.902Z,1.00
2023-03-04T06:57:19.371Z,1.00
2023-03-04T06:58:18.922Z,1.00
2023-03-04T06:59:18.810Z,1.00
2023-03-04T07:00:18.831Z,1.00
2023-03-04T07:01:18.927Z,1.00
2023-03-04T07:02:18.834Z,1.00
2023-03-04T07:03:18.835Z,1.00
2023-03-04T07:04:19.076Z,1.00
2023-03-04T07:05:18.759Z,1.00
2023-03-04T07:06:18.767Z,1.00
2023-03-04T07:07:18.766Z,1.00
2023-03-04T07:08:20.611Z,1.00
2023-03-04T07:09:18.788Z,1.00
2023-03-04T07:10:18.698Z,1.00
2023-03-04T07:11:18.680Z,1.00
2023-03-04T07:12:18.689Z,1.00
2023-03-04T07:13:18.704Z,1.00
2023-03-04T07:14:18.720Z,1.00
2023-03-04T07:15:18.710Z,1.00
2023-03-04T07:16:18.791Z,1.00
2023-03-04T07:17:18.628Z,1.00
2023-03-04T07:18:18.633Z,1.00
2023-03-04T07:19:18.712Z,1.00
2023-03-04T07:20:18.955Z,1.00
2023-03-04T07:21:18.672Z,1.00
2023-03-04T07:22:18.556Z,1.00
2023-03-04T07:23:18.559Z,1.00
2023-03-04T07:24:18.569Z,1.00
2023-03-04T07:25:18.894Z,1.00
2023-03-04T07:26:18.584Z,1.00
2023-03-04T07:27:19.414Z,1.00
2023-03-04T07:28:18.498Z,1.00
2023-03-04T07:29:18.501Z,1.00
2023-03-04T07:30:18.503Z,1.00
2023-03-04T07:31:18.445Z,1.00
2023-03-04T07:32:18.617Z,1.00
2023-03-04T07:33:18.452Z,1.00
2023-03-04T07:34:18.426Z,1.00
2023-03-04T07:35:18.578Z,1.00
2023-03-04T07:36:18.430Z,1.00
2023-03-04T07:37:18.463Z,1.00
2023-03-04T07:38:18.440Z,1.00
2023-03-04T07:39:18.453Z,1.00
2023-03-04T07:40:18.370Z,1.00
2023-03-04T07:41:18.472Z,1.00
2023-03-04T07:42:18.569Z,1.00
2023-03-04T07:43:18.377Z,1.00
2023-03-04T07:44:18.386Z,1.00
2023-03-04T07:45:18.398Z,1.00
2023-03-04T07:46:18.319Z,1.00
2023-03-04T07:47:18.306Z,1.00
2023-03-04T07:48:18.435Z,1.00
2023-03-04T07:49:18.322Z,1.00
2023-03-04T07:50:18.317Z,1.00
2023-03-04T07:51:18.294Z,1.00
2023-03-04T07:52:18.243Z,1.00
2023-03-04T07:53:18.240Z,1.00
2023-03-04T07:54:18.251Z,1.00
2023-03-04T07:55:18.247Z,1.00
2023-03-04T07:56:18.886Z,1.00
2023-03-04T07:57:18.575Z,1.00
2023-03-04T07:58:18.183Z,1.00
2023-03-04T07:59:18.203Z,1.00
2023-03-04T08:00:18.175Z,1.00
2023-03-04T08:01:18.194Z,1.00
2023-03-04T08:02:18.217Z,1.00
2023-03-04T08:03:18.216Z,1.00
2023-03-04T08:04:18.198Z,1.00
2023-03-04T08:05:18.154Z,0.00
2023-03-04T08:06:18.227Z,0.00
2023-03-04T08:07:18.142Z,0.00
2023-03-04T08:08:18.254Z,0.00
2023-03-04T08:09:18.158Z,0.00
2023-03-04T08:10:18.144Z,0.00
2023-03-04T08:11:18.157Z,0.00
2023-03-04T08:12:18.159Z,0.00
2023-03-04T08:13:18.093Z,0.00
2023-03-04T08:14:18.051Z,0.00
2023-03-04T08:15:18.079Z,0.00
2023-03-04T08:16:18.123Z,0.00
2023-03-04T08:17:18.091Z,0.00
2023-03-04T08:18:18.068Z,0.00
2023-03-04T08:19:18.004Z,0.00
2023-03-04T08:20:18.013Z,0.00
2023-03-04T08:21:18.014Z,0.00
2023-03-04T08:22:18.030Z,0.00
2023-03-04T08:23:18.025Z,0.00
2023-03-04T08:24:18.048Z,0.00
2023-03-04T08:25:17.948Z,0.00
2023-03-04T08:26:17.953Z,0.00
2023-03-04T08:27:17.964Z,0.00
2023-03-04T08:28:18.178Z,0.00
2023-03-04T08:29:17.971Z,0.00
2023-03-04T08:30:17.950Z,0.00
2023-03-04T08:31:18.006Z,0.00
2023-03-04T08:32:17.992Z,0.00
2023-03-04T08:33:17.854Z,0.00
2023-03-04T08:34:17.907Z,0.00
2023-03-04T08:35:18.690Z,0.00
2023-03-04T08:36:17.774Z,0.00
2023-03-04T08:37:17.882Z,0.00
2023-03-04T08:38:17.792Z,0.00
2023-03-04T08:39:17.792Z,0.00
2023-03-04T08:40:17.809Z,0.00
2023-03-04T08:41:17.817Z,0.00
2023-03-04T08:42:17.715Z,0.00
2023-03-04T08:43:17.736Z,0.00
2023-03-04T08:44:17.743Z,0.00
2023-03-04T08:45:17.795Z,0.00
2023-03-04T08:46:17.880Z,0.00
2023-03-04T08:47:17.688Z,0.00
2023-03-04T08:48:17.657Z,0.00
2023-03-04T08:49:17.616Z,1.00
2023-03-04T08:50:17.712Z,0.00
2023-03-04T08:51:17.570Z,1.00
2023-03-04T08:52:17.650Z,1.00
2023-03-04T08:53:17.695Z,0.00
2023-03-04T08:54:17.584Z,0.00
2023-03-04T08:55:17.651Z,0.00
2023-03-04T08:56:17.712Z,3.00
2023-03-04T08:57:17.503Z,2.00
2023-03-04T08:58:17.566Z,1.00
2023-03-04T08:59:17.520Z,1.00
2023-03-04T09:00:17.535Z,1.00
2023-03-04T09:01:17.503Z,1.00
2023-03-04T09:02:17.497Z,1.00
2023-03-04T09:03:17.516Z,1.00
2023-03-04T09:04:17.509Z,1.00
2023-03-04T09:05:17.454Z,1.00
2023-03-04T09:06:17.411Z,1.00
2023-03-04T09:07:17.471Z,1.00
2023-03-04T09:08:17.433Z,1.00
2023-03-04T09:09:17.398Z,2.00
2023-03-04T09:10:17.444Z,4.00
2023-03-04T09:11:17.413Z,2.00
2023-03-04T09:12:17.350Z,2.00
2023-03-04T09:13:17.370Z,2.00
2023-03-04T09:14:17.319Z,2.00
2023-03-04T09:15:17.383Z,2.00
2023-03-04T09:16:17.486Z,2.00
2023-03-04T09:17:17.435Z,2.00
2023-03-04T09:18:17.354Z,3.00
2023-03-04T09:19:17.313Z,3.00
2023-03-04T09:20:17.305Z,4.00
2023-03-04T09:21:17.261Z,4.00
2023-03-04T09:22:17.320Z,4.00
2023-03-04T09:23:17.237Z,7.00
2023-03-04T09:24:17.232Z,6.00
2023-03-04T09:25:17.242Z,7.00
2023-03-04T09:26:17.194Z,5.00
2023-03-04T09:27:17.260Z,9.00
2023-03-04T09:28:17.274Z,10.00
2023-03-04T09:29:17.254Z,8.00
2023-03-04T09:30:17.171Z,9.00
2023-03-04T09:31:17.915Z,9.00
2023-03-04T09:32:17.285Z,9.00
2023-03-04T09:33:17.193Z,11.00
2023-03-04T09:34:17.399Z,10.00
2023-03-04T09:35:17.212Z,9.00
2023-03-04T09:36:17.110Z,7.00
2023-03-04T09:37:17.167Z,7.00
2023-03-04T09:38:17.112Z,13.00
2023-03-04T09:39:17.175Z,9.00
2023-03-04T09:40:17.230Z,11.00
2023-03-04T09:41:17.045Z,11.00
2023-03-04T09:42:17.188Z,13.00
2023-03-04T09:43:17.109Z,13.00
2023-03-04T09:44:17.861Z,12.00
2023-03-04T09:45:17.011Z,11.00
2023-03-04T09:46:17.047Z,11.00
2023-03-04T09:47:17.067Z,14.00
2023-03-04T09:48:16.982Z,14.00
2023-03-04T09:49:17.047Z,14.00
2023-03-04T09:50:16.981Z,14.00
2023-03-04T09:51:16.986Z,11.00
2023-03-04T09:52:17.053Z,13.00
2023-03-04T09:53:17.005Z,13.00
2023-03-04T09:54:16.913Z,9.00
2023-03-04T09:55:17.425Z,15.00
2023-03-04T09:56:16.976Z,14.00
2023-03-04T09:57:16.896Z,17.00
2023-03-04T09:58:16.993Z,16.00
2023-03-04T09:59:16.898Z,17.00
2023-03-04T10:00:16.873Z,16.00
2023-03-04T10:01:16.956Z,17.00
2023-03-04T10:02:16.862Z,22.00
2023-03-04T10:03:16.847Z,27.00
2023-03-04T10:04:17.662Z,29.00
2023-03-04T10:05:16.839Z,27.00
2023-03-04T10:06:16.793Z,34.00
2023-03-04T10:07:16.952Z,33.00
2023-03-04T10:08:16.770Z,37.00
2023-03-04T10:09:16.773Z,50.00
2023-03-04T10:10:16.935Z,48.00
2023-03-04T10:11:16.720Z,48.00
2023-03-04T10:12:16.720Z,54.00
2023-03-04T10:13:16.945Z,45.00
2023-03-04T10:14:16.693Z,44.00
2023-03-04T10:15:16.741Z,38.00
2023-03-04T10:16:16.784Z,31.00
2023-03-04T10:17:16.649Z,30.00
2023-03-04T10:18:17.880Z,34.00
2023-03-04T10:19:16.679Z,42.00
2023-03-04T10:20:16.624Z,42.00
2023-03-04T10:21:16.686Z,50.00
2023-03-04T10:22:16.580Z,53.00
2023-03-04T10:23:16.590Z,53.00
2023-03-04T10:24:16.600Z,53.00
2023-03-04T10:25:16.615Z,55.00
2023-03-04T10:26:16.659Z,55.00
2023-03-04T10:27:16.570Z,57.00
2023-03-04T10:28:16.521Z,58.00
2023-03-04T10:29:16.527Z,59.00
2023-03-04T10:30:16.532Z,59.00
2023-03-04T10:31:16.550Z,65.00
2023-03-04T10:32:16.552Z,59.00
2023-03-04T10:33:16.507Z,57.00
2023-03-04T10:34:16.455Z,69.00
2023-03-04T10:35:17.488Z,89.00
2023-03-04T10:36:16.475Z,74.00
2023-03-04T10:37:16.475Z,80.00
2023-03-04T10:38:16.561Z,93.00
2023-03-04T10:39:16.556Z,152.00
2023-03-04T10:40:16.448Z,274.00
2023-03-04T10:41:16.394Z,134.00
2023-03-04T10:42:16.545Z,83.00
2023-03-04T10:43:16.408Z,68.00
2023-03-04T10:44:16.425Z,59.00
2023-03-04T10:45:16.381Z,63.00
2023-03-04T10:46:16.374Z,77.00
2023-03-04T10:47:16.334Z,91.00
2023-03-04T10:48:16.441Z,102.00
2023-03-04T10:49:16.448Z,84.00
2023-03-04T10:50:16.314Z,86.00
2023-03-04T10:51:16.316Z,78.00
2023-03-04T10:52:16.334Z,58.00
2023-03-04T10:53:16.272Z,45.00
2023-03-04T10:54:16.330Z,50.00
2023-03-04T10:55:16.387Z,58.00
2023-03-04T10:56:16.285Z,71.00
2023-03-04T10:57:16.295Z,78.00
2023-03-04T10:58:16.255Z,251.00
2023-03-04T10:59:16.260Z,99.00
2023-03-04T11:00:16.430Z,98.00
2023-03-04T11:01:16.319Z,357.00
2023-03-04T11:02:16.204Z,122.00
2023-03-04T11:03:16.130Z,100.00
2023-03-04T11:04:16.157Z,125.00
2023-03-04T11:05:16.248Z,266.00
2023-03-04T11:06:16.270Z,349.00
2023-03-04T11:07:16.152Z,173.00
2023-03-04T11:08:16.122Z,145.00
2023-03-04T11:09:16.063Z,132.00
2023-03-04T11:10:16.069Z,115.00
2023-03-04T11:11:17.982Z,99.00
2023-03-04T11:12:16.086Z,96.00
2023-03-04T11:13:16.051Z,98.00
2023-03-04T11:14:16.083Z,97.00
2023-03-04T11:15:16.020Z,96.00
2023-03-04T11:16:16.039Z,95.00
2023-03-04T11:17:16.485Z,93.00
2023-03-04T11:18:16.022Z,85.00
2023-03-04T11:19:16.399Z,70.00
2023-03-04T11:20:16.036Z,68.00
2023-03-04T11:21:15.938Z,61.00
2023-03-04T11:22:16.000Z,53.00
2023-03-04T11:23:16.024Z,47.00
2023-03-04T11:24:28.406Z,41.00
2023-03-04T11:25:15.922Z,36.00
2023-03-04T11:26:15.928Z,28.00
2023-03-04T11:27:15.932Z,24.00
2023-03-04T11:28:15.941Z,28.00
2023-03-04T11:29:16.073Z,33.00
2023-03-04T11:30:15.901Z,37.00
2023-03-04T11:31:15.965Z,54.00
2023-03-04T11:32:16.029Z,65.00
2023-03-04T11:33:15.809Z,66.00
2023-03-04T11:34:15.874Z,74.00
2023-03-04T11:35:15.887Z,69.00
2023-03-04T11:36:15.908Z,60.00
2023-03-04T11:37:15.914Z,56.00
2023-03-04T11:38:15.822Z,75.00
2023-03-04T11:39:15.825Z,100.00
2023-03-04T11:40:15.836Z,100.00
2023-03-04T11:41:15.845Z,99.00
2023-03-04T11:42:15.863Z,99.00
2023-03-04T11:43:15.862Z,122.00
2023-03-04T11:44:15.744Z,104.00
2023-03-04T11:45:28.187Z,45.00
2023-03-04T11:46:17.599Z,60.00
2023-03-04T11:47:15.797Z,84.00
2023-03-04T11:48:15.802Z,78.00
2023-03-04T11:49:15.734Z,92.00
2023-03-04T11:50:15.688Z,85.00
2023-03-04T11:51:15.959Z,46.00
2023-03-04T11:52:15.727Z,54.00
2023-03-04T11:53:15.756Z,35.00
2023-03-04T11:54:15.744Z,12.00
2023-03-04T11:55:15.782Z,26.00
2023-03-04T11:56:15.629Z,17.00
2023-03-04T11:57:15.646Z,17.00
2023-03-04T11:58:15.665Z,25.00
2023-03-04T11:59:15.679Z,33.00
2023-03-04T12:00:15.581Z,61.00
2023-03-04T12:01:15.613Z,81.00
2023-03-04T12:02:16.311Z,63.00
2023-03-04T12:03:16.085Z,61.00
2023-03-04T12:04:16.385Z,74.00
2023-03-04T12:05:15.614Z,77.00
2023-03-04T12:06:16.218Z,71.00
2023-03-04T12:07:15.525Z,73.00
2023-03-04T12:08:15.519Z,79.00
2023-03-04T12:09:16.084Z,77.00
2023-03-04T12:10:16.137Z,62.00
2023-03-04T12:11:15.997Z,62.00
2023-03-04T12:12:16.173Z,83.00
2023-03-04T12:13:16.239Z,67.00
2023-03-04T12:14:16.467Z,32.00
2023-03-04T12:15:16.327Z,27.00
2023-03-04T12:16:16.775Z,32.00
2023-03-04T12:17:16.127Z,28.00
2023-03-04T12:18:18.233Z,32.00
2023-03-04T12:19:16.281Z,21.00
2023-03-04T12:20:16.973Z,22.00
2023-03-04T12:21:16.010Z,27.00
2023-03-04T12:22:15.570Z,22.00
2023-03-04T12:23:16.217Z,16.00
2023-03-04T12:24:18.223Z,19.00
2023-03-04T12:25:18.034Z,22.00
2023-03-04T12:26:15.885Z,31.00
2023-03-04T12:27:16.206Z,46.00
2023-03-04T12:28:16.128Z,28.00
2023-03-04T12:29:15.845Z,41.00
2023-03-04T12:30:16.107Z,38.00
2023-03-04T12:31:18.278Z,30.00
2023-03-04T12:32:16.006Z,48.00
2023-03-04T12:33:16.103Z,42.00
2023-03-04T12:34:15.285Z,61.00
2023-03-04T12:35:16.001Z,29.00
2023-03-04T12:36:16.111Z,32.00
2023-03-04T12:37:15.781Z,35.00
2023-03-04T12:38:15.309Z,52.00
2023-03-04T12:39:15.310Z,59.00
2023-03-04T12:40:16.045Z,38.00
2023-03-04T12:41:16.244Z,37.00
2023-03-04T12:42:15.236Z,54.00
2023-03-04T12:43:15.930Z,62.00
2023-03-04T12:44:15.862Z,39.00
2023-03-04T12:45:15.231Z,35.00
2023-03-04T12:46:15.329Z,52.00
2023-03-04T12:47:15.252Z,61.00
2023-03-04T12:48:15.168Z,44.00
2023-03-04T12:49:16.002Z,58.00
2023-03-04T12:50:15.526Z,65.00
2023-03-04T12:51:15.307Z,65.00
2023-03-04T12:52:15.085Z,62.00
2023-03-04T12:53:15.084Z,67.00
2023-03-04T12:54:15.092Z,61.00
2023-03-04T12:55:15.115Z,64.00
2023-03-04T12:56:15.008Z,50.00
2023-03-04T12:57:15.190Z,50.00
2023-03-04T12:58:15.024Z,55.00
2023-03-04T12:59:15.048Z,57.00
2023-03-04T13:00:15.038Z,50.00
2023-03-04T13:01:15.144Z,49.00
2023-03-04T13:02:15.016Z,47.00
2023-03-04T13:03:15.754Z,46.00
2023-03-04T13:04:14.959Z,50.00
2023-03-04T13:05:14.991Z,49.00
2023-03-04T13:06:14.982Z,46.00
2023-03-04T13:07:14.887Z,46.00
2023-03-04T13:08:14.885Z,48.00
2023-03-04T13:09:14.919Z,49.00
2023-03-04T13:10:14.997Z,37.00